Time;durP1;ratioP1;P1;durP2;ratioP2;P2;SDS_P1;SDS_P2;PMS_P1;PMS_P2;Temp;Humidity;BMP_temperature;BMP_pressure;BME280_temperature;BME280_humidity;BME280_pressure;Samples;Min_cycle;Max_cycle;Signal;HPM_P1;HPM_P2
2022/06/02 00:02:18;;;;;;;;;;;;;;;;;;5048663;28;19920;-48
2022/06/02 00:04:43;;;;;;;;;;;;;;;;;;5075223;28;20365;-49
2022/06/02 00:07:09;;;;;;;;;;;;;;;;;;5069009;28;19998;-45
2022/06/02 00:09:36;;;;;;;;;;;;;;;;;;5068037;28;19911;-49
2022/06/02 00:12:01;;;;;;;;;;;;;;;;;;5049132;28;19965;-49
2022/06/02 00:14:29;;;;;;;;;;;;;;;;;;5048814;28;20029;-49
2022/06/02 00:16:55;;;;;;;;;;;;;;;;;;5049084;28;20857;-48
2022/06/02 00:19:21;;;;;;;;;;;;;;;;;;5051067;28;19908;-48
2022/06/02 00:21:47;;;;;;;;;;;;;;;;;;5048535;28;19924;-49
2022/06/02 00:24:13;;;;;;;;;;;;;;;;;;5048016;28;19962;-48
2022/06/02 00:26:40;;;;;;;;;;;;;;;;;;5064929;28;19958;-48
2022/06/02 00:29:06;;;;;;;;;;;;;;;;;;5068517;28;19916;-49
2022/06/02 00:31:32;;;;;;;;;;;;;;;;;;5068459;28;19904;-47
2022/06/02 00:33:57;;;;;;;;;;;;;;;;;;5068098;28;19995;-48
2022/06/02 00:36:23;;;;;;;;;;;;;;;;;;5069081;28;19904;-46
2022/06/02 00:38:49;;;;;;;;;;;;;;;;;;5068158;28;19908;-48
2022/06/02 00:41:16;;;;;;;;;;;;;;;;;;5052833;28;19913;-47
2022/06/02 00:43:42;;;;;;;;;;;;;;;;;;5047891;28;20702;-48
2022/06/02 00:46:08;;;;;;;;;;;;;;;;;;5048384;28;19912;-49
2022/06/02 00:48:34;;;;;;;;;;;;;;;;;;5048000;28;19905;-48
2022/06/02 00:50:59;;;;;;;;;;;;;;;;;;5047974;28;19905;-50
2022/06/02 00:53:25;;;;;;;;;;;;;;;;;;5048526;28;19905;-48
2022/06/02 00:58:36;;;;;;;;;;;;;;;;;;5067666;28;19916;-47
2022/06/02 01:01:02;;;;;;;;;;;;;;;;;;5067901;28;19904;-47
2022/06/02 01:03:28;;;;;;;;;;;;;;;;;;5066249;28;19905;-45
2022/06/02 01:05:54;;;;;;;;;;;;;;;;;;5068242;28;19904;-49
2022/06/02 01:08:20;;;;;;;;;;;;;;;;;;5067725;28;19999;-49
2022/06/02 01:10:45;;;;;;;;;;;;;;;;;;5067586;28;19927;-48
2022/06/02 01:13:11;;;;;;;;;;;;;;;;;;5067482;28;19915;-48
2022/06/02 01:15:37;;;;;;;;;;;;;;;;;;5066278;28;19939;-46
2022/06/02 01:18:03;;;;;;;;;;;;;;;;;;5067507;28;19908;-47
2022/06/02 01:20:30;;;;;;;;;;;;;;;;;;5065336;28;19908;-48
2022/06/02 01:22:59;;;;;;;;;;;;;;;;;;5067667;28;19960;-49
2022/06/02 01:25:25;;;;;;;;;;;;;;;;;;5067978;28;19908;-48
2022/06/02 01:27:50;;;;;;;;;;;;;;;;;;5067252;28;20661;-48
2022/06/02 01:30:16;;;;;;;;;;;;;;;;;;5067356;28;19973;-50
2022/06/02 01:32:42;;;;;;;;;;;;;;;;;;5066836;28;19908;-44
2022/06/02 01:35:08;;;;;;;;;;;;;;;;;;5065453;28;20007;-47
2022/06/02 01:37:34;;;;;;;;;;;;;;;;;;5065542;28;19912;-46
2022/06/02 01:40:00;;;;;;;;;;;;;;;;;;5066856;28;19915;-46
2022/06/02 01:42:26;;;;;;;;;;;;;;;;;;5067835;28;19905;-45
2022/06/02 01:44:56;;;;;;;;;;;;;;;;;;5066897;28;19912;-46
2022/06/02 01:47:22;;;;;;;;;;;;;;;;;;5067054;28;19961;-45
2022/06/02 01:49:48;;;;;;;;;;;;;;;;;;5066519;28;20570;-47
2022/06/02 01:52:14;;;;;;;;;;;;;;;;;;5067016;28;19995;-47
2022/06/02 01:54:41;;;;;;;;;;;;;;;;;;5065812;28;19908;-45
2022/06/02 01:57:07;;;;;;;;;;;;;;;;;;5066612;28;19965;-46
2022/06/02 01:59:33;;;;;;;;;;;;;;;;;;5066979;28;20342;-46
2022/06/02 02:01:59;;;;;;;;;;;;;;;;;;5066555;28;19908;-46
2022/06/02 02:04:25;;;;;;;;;;;;;;;;;;5066409;28;19913;-46
2022/06/02 02:06:51;;;;;;;;;;;;;;;;;;5066661;28;20279;-46
2022/06/02 02:09:17;;;;;;;;;;;;;;;;;;5067079;28;19987;-47
2022/06/02 02:11:44;;;;;;;;;;;;;;;;;;5066878;28;20427;-45
2022/06/02 02:14:10;;;;;;;;;;;;;;;;;;5066674;28;20318;-46
2022/06/02 02:16:35;;;;;;;;;;;;;;;;;;5066137;28;19904;-48
2022/06/02 02:19:01;;;;;;;;;;;;;;;;;;5065786;28;19916;-47
2022/06/02 02:21:27;;;;;;;;;;;;;;;;;;5065952;28;19905;-46
2022/06/02 02:23:53;;;;;;;;;;;;;;;;;;5067051;28;20034;-45
2022/06/02 02:26:19;;;;;;;;;;;;;;;;;;5066826;28;19908;-50
2022/06/02 02:28:45;;;;;;;;;;;;;;;;;;5066594;28;19997;-48
2022/06/02 02:31:11;;;;;;;3.73;2.70;;;;;;;;;;5065875;28;20420;-43
2022/06/02 02:33:59;;;;;;;3.45;2.25;;;;;;;;;;5064403;28;20099;-43
2022/06/02 02:36:40;;;;;;;2.45;1.95;;;;;;;;;;5066654;28;20036;-42
2022/06/02 02:39:18;;;;;;;2.55;1.90;;;;;;;;;;5065901;28;20032;-42
2022/06/02 02:41:45;;;;;;;;;;;;;;;;;;5066238;28;20029;-45
2022/06/02 02:44:11;;;;;;;;;;;;;;;;;;5066012;28;19904;-47
2022/06/02 02:46:37;;;;;;;;;;;;;;;;;;5068234;28;19950;-44
2022/06/02 02:49:03;;;;;;;;;;;;;;;;;;5069363;28;19999;-45
2022/06/02 02:51:30;;;;;;;;;;;;;;;;;;5070579;28;19908;-43
2022/06/02 02:53:56;;;;;;;;;;;;;;;;;;5069411;28;20267;-43
2022/06/02 02:56:22;;;;;;;;;;;;;;;;;;5070405;28;19916;-44
2022/06/02 02:58:48;;;;;;;;;;;;;;;;;;5068699;28;20411;-43
2022/06/02 03:01:14;;;;;;;;;;;;;;;;;;5069768;28;19999;-44
2022/06/02 03:03:40;;;;;;;;;;;;;;;;;;5069877;28;19948;-44
2022/06/02 03:06:06;;;;;;;;;;;;;;;;;;5070320;28;19955;-44
2022/06/02 03:08:33;;;;;;;;;;;;;;;;;;5069965;28;19904;-44
2022/06/02 03:10:59;;;;;;;;;;;;;;;;;;5069478;28;19908;-45
2022/06/02 03:13:25;;;;;;;;;;;;;;;;;;5069197;28;19920;-45
2022/06/02 03:15:51;;;;;;;;;;;;;;;;;;5069457;28;19906;-43
2022/06/02 03:18:19;;;;;;;;;;;;;;;;;;5069856;28;19908;-44
2022/06/02 03:20:45;;;;;;;;;;;;;;;;;;5069590;28;20384;-45
2022/06/02 03:23:11;;;;;;;;;;;;;;;;;;5069826;28;19975;-44
2022/06/02 03:25:38;;;;;;;;;;;;;;;;;;5069376;28;19947;-44
2022/06/02 03:28:04;;;;;;;;;;;;;;;;;;5068672;28;20441;-44
2022/06/02 03:30:30;;;;;;;;;;;;;;;;;;5069609;28;19911;-45
2022/06/02 03:32:56;;;;;;;;;;;;;;;;;;5067713;28;19950;-44
2022/06/02 03:35:22;;;;;;;;;;;;;;;;;;5069501;28;19910;-45
2022/06/02 03:37:48;;;;;;;;;;;;;;;;;;5056739;28;19908;-44
2022/06/02 03:40:15;;;;;;;;;;;;;;;;;;5049398;28;19981;-46
2022/06/02 03:42:41;;;;;;;;;;;;;;;;;;5057648;28;20280;-45
2022/06/02 03:45:07;;;;;;;;;;;;;;;;;;5069233;28;19911;-45
2022/06/02 03:47:35;;;;;;;;;;;;;;;;;;5069149;28;19904;-44
2022/06/02 03:50:01;;;;;;;;;;;;;;;;;;5069931;28;19950;-44
2022/06/02 03:52:27;;;;;;;;;;;;;;;;;;5058995;28;20406;-45
2022/06/02 03:54:53;;;;;;;;;;;;;;;;;;5047337;28;19912;-44
2022/06/02 03:57:19;;;;;;;;;;;;;;;;;;5046214;28;19920;-45
2022/06/02 03:59:45;;;;;;;;;;;;;;;;;;5047211;28;19970;-43
2022/06/02 04:02:12;;;;;;;;;;;;;;;;;;5047496;28;19905;-45
2022/06/02 04:04:39;;;;;;;;;;;;;;;;;;5046997;28;19908;-45
2022/06/02 04:07:08;;;;;;;;;;;;;;;;;;5055076;28;19912;-46
2022/06/02 04:09:34;;;;;;;;;;;;;;;;;;5067347;28;19915;-44
2022/06/02 04:14:45;;;;;;;;;;;;;;;;;;5066857;28;19911;-45
2022/06/02 04:17:11;;;;;;;;;;;;;;;;;;5066942;28;19912;-45
2022/06/02 04:22:21;;;;;;;;;;;;;;;;;;5066092;28;19915;-44
2022/06/02 04:24:47;;;;;;;;;;;;;;;;;;5067106;28;19908;-46
2022/06/02 04:27:14;;;;;;;;;;;;;;;;;;5066348;28;20295;-45
2022/06/02 04:29:40;;;;;;;;;;;;;;;;;;5066603;28;19987;-44
2022/06/02 04:32:06;;;;;;;;;;;;;;;;;;5067041;28;20442;-46
2022/06/02 04:34:33;;;;;;;;;;;;;;;;;;5065574;28;19912;-43
2022/06/02 04:36:59;;;;;;;;;;;;;;;;;;5067243;28;20162;-43
2022/06/02 04:39:27;;;;;;;;;;;;;;;;;;5066661;28;19913;-44
2022/06/02 04:41:53;;;;;;;;;;;;;;;;;;5066417;28;19908;-44
2022/06/02 04:44:20;;;;;;;;;;;;;;;;;;5066257;28;20392;-44
2022/06/02 04:46:47;;;;;;;;;;;;;;;;;;5066285;28;20315;-44
2022/06/02 04:49:13;;;;;;;;;;;;;;;;;;5065550;28;19916;-46
2022/06/02 04:51:39;;;;;;;;;;;;;;;;;;5066775;28;19916;-46
2022/06/02 04:54:04;;;;;;;;;;;;;;;;;;5066324;28;20007;-44
2022/06/02 04:56:31;;;;;;;;;;;;;;;;;;5067039;28;19919;-44
2022/06/02 04:58:57;;;;;;;;;;;;;;;;;;5065317;28;19934;-44
2022/06/02 05:01:24;;;;;;;;;;;;;;;;;;5066207;28;19904;-47
2022/06/02 05:03:50;;;;;;;;;;;;;;;;;;5065968;28;20401;-44
2022/06/02 05:06:16;;;;;;;;;;;;;;;;;;5066240;28;19943;-44
2022/06/02 05:08:43;;;;;;;;;;;;;;;;;;5065470;28;19961;-44
2022/06/02 05:11:09;;;;;;;;;;;;;;;;;;5066485;28;20374;-44
2022/06/02 05:13:35;;;;;;;;;;;;;;;;;;5063511;28;19923;-48
2022/06/02 05:16:01;;;;;;;;;;;;;;;;;;5046640;28;19904;-45
2022/06/02 05:18:27;;;;;;;;;;;;;;;;;;5046389;28;19909;-44
2022/06/02 05:20:53;;;;;;;;;;;;;;;;;;5046509;28;20399;-44
2022/06/02 05:23:18;;;;;;;;;;;;;;;;;;5065699;28;19951;-44
2022/06/02 05:25:45;;;;;;;;;;;;;;;;;;5065848;28;20325;-45
2022/06/02 05:28:11;;;;;;;;;;;;;;;;;;5066066;28;19966;-44
2022/06/02 05:30:37;;;;;;;;;;;;;;;;;;5063626;28;19923;-44
2022/06/02 05:33:03;;;;;;;;;;;;;;;;;;5063838;28;19908;-44
2022/06/02 05:35:29;;;;;;;;;;;;;;;;;;5053775;28;20533;-44
2022/06/02 05:38:00;;;;;;;;;;;;;;;;;;5044953;28;20299;-44
2022/06/02 05:40:26;;;;;;;;;;;;;;;;;;5045580;28;19905;-44
2022/06/02 05:42:52;;;;;;;;;;;;;;;;;;5075100;28;19907;-44
2022/06/02 05:45:18;;;;;;;;;;;;;;;;;;5069837;28;19904;-44
2022/06/02 05:47:44;;;;;;;;;;;;;;;;;;5066218;28;20379;-44
2022/06/02 05:50:10;;;;;;;;;;;;;;;;;;5066755;28;20017;-47
2022/06/02 05:52:36;;;;;;;;;;;;;;;;;;5066003;28;19919;-45
2022/06/02 05:55:02;;;;;;;;;;;;;;;;;;5066285;28;19912;-45
2022/06/02 05:57:28;;;;;;;;;;;;;;;;;;5065465;28;19920;-45
2022/06/02 05:59:54;;;;;;;;;;;;;;;;;;5066028;28;19905;-46
2022/06/02 06:02:20;;;;;;;;;;;;;;;;;;5049954;28;19936;-44
2022/06/02 06:04:46;;;;;;;;;;;;;;;;;;5046055;28;19908;-47
2022/06/02 06:07:12;;;;;;;;;;;;;;;;;;5047088;28;19959;-45
2022/06/02 06:09:38;;;;;;;;;;;;;;;;;;5046685;28;20334;-45
2022/06/02 06:12:04;;;;;;;;;;;;;;;;;;5046782;28;19905;-45
2022/06/02 06:14:30;;;;;;;;;;;;;;;;;;5047345;28;19912;-45
2022/06/02 06:16:56;;;;;;;;;;;;;;;;;;5068941;28;19912;-44
2022/06/02 06:19:22;;;;;;;;;;;;;;;;;;5066307;28;20003;-45
2022/06/02 06:21:48;;;;;;;;;;;;;;;;;;5066821;28;20346;-45
2022/06/02 06:24:14;;;;;;;;;;;;;;;;;;5059855;28;19909;-45
2022/06/02 06:26:40;;;;;;;;;;;;;;;;;;5067551;28;19912;-44
2022/06/02 06:29:06;;;;;;;;;;;;;;;;;;5066408;28;19951;-45
2022/06/02 06:31:32;;;;;;;;;;;;;;;;;;5069259;28;19947;-44
2022/06/02 06:33:58;;;;;;;;;;;;;;;;;;5064840;28;19950;-54
2022/06/02 06:36:24;;;;;;;;;;;;;;;;;;5068355;28;19986;-54
2022/06/02 06:38:50;;;;;;;;;;;;;;;;;;5073056;28;20524;-54
2022/06/02 06:41:17;;;;;;;;;;;;;;;;;;5069697;28;19913;-55
2022/06/02 06:43:43;;;;;;;;;;;;;;;;;;5046890;28;19999;-54
2022/06/02 06:46:09;;;;;;;;;;;;;;;;;;5050510;28;20000;-54
2022/06/02 06:48:35;;;;;;;;;;;;;;;;;;5066399;28;19920;-56
2022/06/02 06:51:01;;;;;;;;;;;;;;;;;;5065172;28;19967;-56
2022/06/02 06:53:27;;;;;;;;;;;;;;;;;;5071488;28;19908;-56
2022/06/02 06:55:53;;;;;;;;;;;;;;;;;;5064174;28;19988;-56
2022/06/02 06:58:19;;;;;;;;;;;;;;;;;;5066532;28;19927;-56
2022/06/02 07:00:46;;;;;;;;;;;;;;;;;;5072271;28;20279;-55
2022/06/02 07:03:12;;;;;;;;;;;;;;;;;;5079287;28;19912;-56
2022/06/02 07:05:38;;;;;;;;;;;;;;;;;;5072974;28;19912;-57
2022/06/02 07:08:04;;;;;;;;;;;;;;;;;;5065263;28;19912;-56
2022/06/02 07:10:30;;;;;;;;;;;;;;;;;;5065176;28;19928;-56
2022/06/02 07:12:56;;;;;;;;;;;;;;;;;;5062727;28;19966;-56
2022/06/02 07:15:23;;;;;;;;;;;;;;;;;;5067406;28;19912;-56
2022/06/02 07:17:49;;;;;;;;;;;;;;;;;;5067880;28;19919;-56
2022/06/02 07:20:15;;;;;;;;;;;;;;;;;;5065686;28;20590;-56
2022/06/02 07:22:42;;;;;;;;;;;;;;;;;;5066177;28;19944;-56
2022/06/02 07:25:08;;;;;;;;;;;;;;;;;;5068109;28;19908;-56
2022/06/02 07:27:34;;;;;;;;;;;;;;;;;;5063484;28;19904;-56
2022/06/02 07:30:00;;;;;;;;;;;;;;;;;;5064888;28;20609;-56
2022/06/02 07:32:25;;;;;;;;;;;;;;;;;;5062605;28;20059;-56
2022/06/02 07:34:52;;;;;;;;;;;;;;;;;;5072462;28;19945;-56
2022/06/02 07:37:18;;;;;;;;;;;;;;;;;;5071032;28;20434;-56
2022/06/02 07:39:43;;;;;;;;;;;;;;;;;;5070799;28;19904;-56
2022/06/02 07:42:09;;;;;;;;;;;;;;;;;;5070816;28;19999;-56
2022/06/02 07:44:35;;;;;;;;;;;;;;;;;;5070427;28;19910;-56
2022/06/02 07:47:01;;;;;;;;;;;;;;;;;;5069593;28;19935;-56
2022/06/02 07:49:27;;;;;;;;;;;;;;;;;;5071173;28;19904;-56
2022/06/02 07:51:53;;;;;;;;;;;;;;;;;;5070815;28;19911;-56
2022/06/02 07:54:19;;;;;;;;;;;;;;;;;;5070820;28;19908;-56
2022/06/02 07:56:45;;;;;;;;;;;;;;;;;;5070661;28;19912;-56
2022/06/02 07:59:11;;;;;;;;;;;;;;;;;;5070678;28;19974;-56
2022/06/02 08:01:37;;;;;;;;;;;;;;;;;;5069878;28;19912;-56
2022/06/02 08:04:03;;;;;;;;;;;;;;;;;;5070659;28;19913;-56
2022/06/02 08:06:29;;;;;;;;;;;;;;;;;;5070926;28;19908;-55
2022/06/02 08:08:56;;;;;;;;;;;;;;;;;;5070482;28;19910;-55
2022/06/02 08:11:23;;;;;;;;;;;;;;;;;;5070586;28;19991;-54
2022/06/02 08:13:49;;;;;;;;;;;;;;;;;;5070036;28;20857;-54
2022/06/02 08:16:15;;;;;;;;;;;;;;;;;;5069557;28;20004;-53
2022/06/02 08:18:41;;;;;;;;;;;;;;;;;;5070158;28;19912;-54
2022/06/02 08:21:16;;;;;;;;;;;;;;;;;;5070210;28;19999;-54
2022/06/02 08:23:42;;;;;;;;;;;;;;;;;;5068125;28;20351;-54
2022/06/02 08:26:08;;;;;;;;;;;;;;;;;;5070336;28;20330;-54
2022/06/02 08:28:34;;;;;;;;;;;;;;;;;;5070021;28;19904;-53
2022/06/02 08:31:00;;;;;;;;;;;;;;;;;;5075803;28;19943;-54
2022/06/02 08:33:26;;;;;;;;;;;;;;;;;;5076003;28;19908;-54
2022/06/02 08:35:52;;;;;;;;;;;;;;;;;;5079481;28;19989;-54
2022/06/02 08:38:18;;;;;;;;;;;;;;;;;;5064848;28;19917;-54
2022/06/02 08:40:43;;;;;;;;;;;;;;;;;;5064924;28;19913;-55
2022/06/02 08:43:09;;;;;;;;;;;;;;;;;;5082357;28;20082;-54
2022/06/02 08:45:35;;;;;;;;;;;;;;;;;;5074395;28;19909;-55
2022/06/02 08:48:04;;;;;;;;;;;;;;;;;;5068227;28;19999;-55
2022/06/02 08:50:30;;;;;;;;;;;;;;;;;;5068772;28;19916;-55
2022/06/02 08:52:56;;;;;;;;;;;;;;;;;;5069610;28;19920;-55
2022/06/02 08:55:22;;;;;;;;;;;;;;;;;;5068174;28;19916;-55
2022/06/02 08:57:48;;;;;;;;;;;;;;;;;;5058612;28;19966;-55
2022/06/02 09:00:14;;;;;;;;;;;;;;;;;;5053784;28;19912;-55
2022/06/02 09:02:40;;;;;;;;;;;;;;;;;;5066757;28;20545;-55
2022/06/02 09:05:06;;;;;;;;;;;;;;;;;;5068591;28;20321;-55
2022/06/02 09:07:32;;;;;;;;;;;;;;;;;;5068787;28;19908;-54
2022/06/02 09:09:58;;;;;;;;;;;;;;;;;;5067810;28;20362;-55
2022/06/02 09:12:24;;;;;;;;;;;;;;;;;;5080320;28;19930;-55
2022/06/02 09:14:50;;;;;;;;;;;;;;;;;;5065344;28;19908;-55
2022/06/02 09:17:16;;;;;;;;;;;;;;;;;;5070556;28;20024;-55
2022/06/02 09:19:42;;;;;;;;;;;;;;;;;;5068870;28;19908;-55
2022/06/02 09:22:08;;;;;;;;;;;;;;;;;;5069696;28;19908;-55
2022/06/02 09:24:34;;;;;;;;;;;;;;;;;;5069154;28;20598;-55
2022/06/02 09:27:00;;;;;;;;;;;;;;;;;;5049600;28;19916;-55
2022/06/02 09:29:26;;;;;;;;;;;;;;;;;;5054996;28;19923;-55
2022/06/02 09:31:52;;;;;;;;;;;;;;;;;;5068270;28;19943;-55
2022/06/02 09:34:17;;;;;;;;;;;;;;;;;;5062814;28;19916;-55
2022/06/02 09:36:43;;;;;;;;;;;;;;;;;;5062767;28;19916;-55
2022/06/02 09:39:09;;;;;;;;;;;;;;;;;;5068002;28;20041;-55
2022/06/02 09:41:35;;;;;;;;;;;;;;;;;;5048804;28;20015;-55
2022/06/02 09:44:01;;;;;;;;;;;;;;;;;;5048553;28;19909;-56
2022/06/02 09:46:27;;;;;;;;;;;;;;;;;;5060797;28;19938;-55
2022/06/02 09:48:53;;;;;;;;;;;;;;;;;;5053597;28;19922;-57
2022/06/02 09:51:19;;;;;;;;;;;;;;;;;;5048818;28;19915;-56
2022/06/02 09:53:45;;;;;;;;;;;;;;;;;;5048448;28;19957;-55
2022/06/02 09:56:11;;;;;;;;;;;;;;;;;;5047644;28;19912;-55
2022/06/02 09:58:37;;;;;;;;;;;;;;;;;;5049700;28;19969;-55
2022/06/02 10:01:03;;;;;;;;;;;;;;;;;;5049852;28;19935;-56
2022/06/02 10:03:28;;;;;;;;;;;;;;;;;;5056443;28;19908;-56
2022/06/02 10:05:54;;;;;;;;;;;;;;;;;;5068503;28;19912;-56
2022/06/02 10:08:20;;;;;;;;;;;;;;;;;;5068554;28;19973;-56
2022/06/02 10:10:46;;;;;;;;;;;;;;;;;;5060391;28;20033;-56
2022/06/02 10:13:12;;;;;;;;;;;;;;;;;;5048149;28;19909;-56
2022/06/02 10:15:38;;;;;;;;;;;;;;;;;;5057639;28;19966;-56
2022/06/02 10:18:04;;;;;;;;;;;;;;;;;;5061380;28;19916;-56
2022/06/02 10:20:30;;;;;;;;;;;;;;;;;;5048358;28;19951;-56
2022/06/02 10:22:56;;;;;;;;;;;;;;;;;;5050129;28;19909;-56
2022/06/02 10:25:22;;;;;;;;;;;;;;;;;;5049028;28;19920;-56
2022/06/02 10:27:48;;;;;;;;;;;;;;;;;;5048015;28;19912;-56
2022/06/02 10:30:14;;;;;;;;;;;;;;;;;;5050695;28;19916;-56
2022/06/02 10:32:40;;;;;;;;;;;;;;;;;;5048769;28;19905;-56
2022/06/02 10:35:06;;;;;;;;;;;;;;;;;;5049703;28;19931;-56
2022/06/02 10:37:35;;;;;;;;;;;;;;;;;;5048267;28;20447;-56
2022/06/02 10:40:01;;;;;;;;;;;;;;;;;;5055177;28;20356;-56
2022/06/02 10:42:27;;;;;;;;;;;;;;;;;;5058629;28;19919;-56
2022/06/02 10:44:54;;;;;;;;;;;;;;;;;;5050820;28;19999;-56
2022/06/02 10:47:21;;;;;;;;;;;;;;;;;;5060026;28;19909;-57
2022/06/02 10:49:47;;;;;;;;;;;;;;;;;;5078654;28;19909;-56
2022/06/02 10:52:13;;;;;;;;;;;;;;;;;;5064184;28;19955;-56
2022/06/02 10:54:39;;;;;;;;;;;;;;;;;;5081552;28;19912;-56
2022/06/02 10:57:05;;;;;;;;;;;;;;;;;;5087767;28;19908;-56
2022/06/02 10:59:33;;;;;;;;;;;;;;;;;;5078765;28;20327;-56
2022/06/02 11:01:59;;;;;;;;;;;;;;;;;;5051687;28;19909;-56
2022/06/02 11:04:25;;;;;;;;;;;;;;;;;;5054612;28;19920;-56
2022/06/02 11:06:51;;;;;;;;;;;;;;;;;;5068525;28;19931;-53
2022/06/02 11:09:17;;;;;;;;;;;;;;;;;;5071626;28;19908;-52
2022/06/02 11:11:43;;;;;;;;;;;;;;;;;;5062142;28;19913;-53
2022/06/02 11:14:09;;;;;;;;;;;;;;;;;;5090041;28;19912;-53
2022/06/02 11:16:35;;;;;;;;;;;;;;;;;;5091562;28;19908;-55
2022/06/02 11:19:01;;;;;;;;;;;;;;;;;;5066069;28;19978;-56
2022/06/02 11:21:27;;;;;;;;;;;;;;;;;;5056561;28;19909;-55
2022/06/02 11:23:53;;;;;;;;;;;;;;;;;;5051096;28;19916;-55
2022/06/02 11:26:19;;;;;;;;;;;;;;;;;;5051203;28;19909;-56
2022/06/02 11:28:45;;;;;;;;;;;;;;;;;;5051737;28;19999;-56
2022/06/02 11:31:11;;;;;;;;;;;;;;;;;;5052190;28;19916;-56
2022/06/02 11:33:37;;;;;;;;;;;;;;;;;;5065009;28;19916;-55
2022/06/02 11:36:03;;;;;;;;;;;;;;;;;;5071830;28;19909;-56
2022/06/02 11:38:29;;;;;;;;;;;;;;;;;;5066062;28;19917;-56
2022/06/02 11:40:55;;;;;;;;;;;;;;;;;;5067244;28;19916;-56
2022/06/02 11:43:24;;;;;;;;;;;;;;;;;;5059468;28;19999;-56
2022/06/02 11:45:50;;;;;;;;;;;;;;;;;;5067904;28;20013;-56
2022/06/02 11:48:16;;;;;;;;;;;;;;;;;;5073200;28;19947;-56
2022/06/02 11:50:42;;;;;;;;;;;;;;;;;;5062160;28;19916;-56
2022/06/02 11:53:08;;;;;;;;;;;;;;;;;;5072478;28;19912;-56
2022/06/02 11:55:34;;;;;;;;;;;;;;;;;;5069744;28;19916;-56
2022/06/02 11:58:00;;;;;;;;;;;;;;;;;;5070437;28;20402;-55
2022/06/02 12:00:26;;;;;;;;;;;;;;;;;;5072744;28;19909;-56
2022/06/02 12:02:52;;;;;;;;;;;;;;;;;;5071380;28;19987;-56
2022/06/02 12:05:18;;;;;;;;;;;;;;;;;;5069797;28;19920;-56
2022/06/02 12:07:45;;;;;;;;;;;;;;;;;;5064288;28;20431;-56
2022/06/02 12:10:11;;;;;;;;;;;;;;;;;;5075006;28;19912;-56
2022/06/02 12:12:41;;;;;;;;;;;;;;;;;;5063129;28;20306;-56
2022/06/02 12:15:07;;;;;;;;;;;;;;;;;;5069020;28;19954;-56
2022/06/02 12:17:33;;;;;;;;;;;;;;;;;;5069834;28;19924;-56
2022/06/02 12:19:59;;;;;;;;;;;;;;;;;;5070136;28;19905;-56
2022/06/02 12:22:25;;;;;;;;;;;;;;;;;;5070124;28;19952;-56
2022/06/02 12:24:51;;;;;;;;;;;;;;;;;;5069777;28;19917;-56
2022/06/02 12:27:17;;;;;;;;;;;;;;;;;;5070958;28;19912;-56
2022/06/02 12:29:43;;;;;;;;;;;;;;;;;;5069737;28;19912;-56
2022/06/02 12:32:09;;;;;;;;;;;;;;;;;;5067636;28;20438;-56
2022/06/02 12:34:35;;;;;;;;;;;;;;;;;;5070623;28;19954;-56
2022/06/02 12:37:01;;;;;;;;;;;;;;;;;;5068839;28;19912;-56
2022/06/02 12:39:27;;;;;;;;;;;;;;;;;;5072795;28;19912;-57
2022/06/02 12:41:54;;;;;;;;;;;;;;;;;;5069362;28;20315;-57
2022/06/02 12:44:20;;;;;;;;;;;;;;;;;;5067729;28;19908;-56
2022/06/02 12:46:46;;;;;;;;;;;;;;;;;;5062313;28;19916;-57
2022/06/02 12:49:12;;;;;;;;;;;;;;;;;;5060806;28;19915;-57
2022/06/02 12:51:38;;;;;;;;;;;;;;;;;;5089300;28;19915;-57
2022/06/02 12:54:04;;;;;;;;;;;;;;;;;;5052617;28;19917;-57
2022/06/02 12:56:32;;;;;;;;;;;;;;;;;;5077235;28;19919;-57
2022/06/02 12:58:57;;;;;;;;;;;;;;;;;;5078494;28;20353;-57
2022/06/02 13:01:23;;;;;;;;;;;;;;;;;;5071173;28;19912;-57
2022/06/02 13:03:49;;;;;;;;;;;;;;;;;;5071602;28;19919;-58
2022/06/02 13:06:15;;;;;;;;;;;;;;;;;;5065005;28;19909;-58
2022/06/02 13:08:41;;;;;;;;;;;;;;;;;;5071340;28;19908;-57
2022/06/02 13:11:07;;;;;;;;;;;;;;;;;;5064392;28;19931;-57
2022/06/02 13:13:33;;;;;;;;;;;;;;;;;;5061303;28;19909;-58
2022/06/02 13:15:59;;;;;;;;;;;;;;;;;;5066340;28;19919;-58
2022/06/02 13:18:25;;;;;;;;;;;;;;;;;;5067284;28;19924;-57
2022/06/02 13:20:52;;;;;;;;;;;;;;;;;;5068282;28;19905;-57
2022/06/02 13:23:18;;;;;;;;;;;;;;;;;;5066990;28;19913;-57
2022/06/02 13:25:47;;;;;;;;;;;;;;;;;;5076893;28;20478;-57
2022/06/02 13:28:13;;;;;;;;;;;;;;;;;;5081626;28;20373;-58
2022/06/02 13:30:40;;;;;;;;;;;;;;;;;;5080394;28;20334;-57
2022/06/02 13:33:05;;;;;;;;;;;;;;;;;;5066786;28;19916;-57
2022/06/02 13:35:31;;;;;;;;;;;;;;;;;;5068254;28;19912;-57
2022/06/02 13:37:57;;;;;;;;;;;;;;;;;;5068520;28;19935;-57
2022/06/02 13:40:23;;;;;;;;;;;;;;;;;;5075754;28;19912;-58
2022/06/02 13:42:50;;;;;;;;;;;;;;;;;;5075397;28;19912;-57
2022/06/02 13:45:16;;;;;;;;;;;;;;;;;;5084275;28;20093;-58
2022/06/02 13:47:44;;;;;;;;;;;;;;;;;;5062619;28;20006;-58
2022/06/02 13:50:10;;;;;;;;;;;;;;;;;;5061302;28;19919;-58
2022/06/02 13:52:37;;;;;;;;;;;;;;;;;;5068961;28;19913;-58
2022/06/02 13:57:49;;;;;;;;;;;;;;;;;;5071132;28;20353;-58
2022/06/02 14:00:20;;;;;;;;;;;;;;;;;;5065707;28;20391;-58
2022/06/02 14:02:46;;;;;;;;;;;;;;;;;;5065915;28;19919;-58
2022/06/02 14:05:12;;;;;;;;;;;;;;;;;;5067098;28;20488;-58
2022/06/02 14:07:38;;;;;;;;;;;;;;;;;;5067182;28;19912;-58
2022/06/02 14:10:04;;;;;;;;;;;;;;;;;;5068021;28;20341;-58
2022/06/02 14:12:30;;;;;;;;;;;;;;;;;;5069165;28;19951;-58
2022/06/02 14:14:55;;;;;;;;;;;;;;;;;;5084979;28;19933;-58
2022/06/02 14:17:22;;;;;;;;;;;;;;;;;;5072870;28;19908;-58
2022/06/02 14:19:49;;;;;;;;;;;;;;;;;;5067677;28;19944;-58
2022/06/02 14:22:15;;;;;;;;;;;;;;;;;;5066749;28;19912;-58
2022/06/02 14:24:42;;;;;;;;;;;;;;;;;;5068031;28;19962;-58
2022/06/02 14:27:08;;;;;;;;;;;;;;;;;;5076907;28;19947;-58
2022/06/02 14:29:34;;;;;;;;;;;;;;;;;;5087010;28;19954;-58
2022/06/02 14:32:00;;;;;;;;;;;;;;;;;;5075263;28;19966;-58
2022/06/02 14:34:27;;;;;;;;;;;;;;;;;;5068585;28;19987;-58
2022/06/02 14:36:54;;;;;;;;;;;;;;;;;;5068342;28;19904;-58
2022/06/02 14:39:20;;;;;;;;;;;;;;;;;;5067759;28;19951;-58
2022/06/02 14:41:46;;;;;;;;;;;;;;;;;;5068525;28;19932;-59
2022/06/02 14:44:14;;;;;;;;;;;;;;;;;;5070176;28;20322;-59
2022/06/02 14:46:39;;;;;;;;;;;;;;;;;;5070083;28;19909;-59
2022/06/02 14:49:05;;;;;;;;;;;;;;;;;;5064637;28;19958;-59
2022/06/02 14:51:32;;;;;;;;;;;;;;;;;;5071196;28;19908;-59
2022/06/02 14:53:58;;;;;;;;;;;;;;;;;;5071963;28;19912;-59
2022/06/02 14:56:24;;;;;;;;;;;;;;;;;;5079187;28;20365;-59
2022/06/02 14:58:49;;;;;;;;;;;;;;;;;;5070169;28;19967;-59
2022/06/02 15:01:15;;;;;;;;;;;;;;;;;;5071743;28;19905;-59
2022/06/02 15:03:41;;;;;;;;;;;;;;;;;;5071210;28;19912;-59
2022/06/02 15:06:07;;;;;;;;;;;;;;;;;;5071538;28;19904;-59
2022/06/02 15:08:33;;;;;;;;;;;;;;;;;;5071340;28;20037;-59
2022/06/02 15:11:01;;;;;;;;;;;;;;;;;;5071385;28;19908;-59
2022/06/02 15:13:30;;;;;;;;;;;;;;;;;;5068802;28;20062;-59
2022/06/02 15:15:56;;;;;;;;;;;;;;;;;;5072745;28;20367;-57
2022/06/02 15:18:22;;;;;;;;;;;;;;;;;;5057248;28;19916;-59
2022/06/02 15:20:48;;;;;;;;;;;;;;;;;;5065815;28;20388;-59
2022/06/02 15:23:15;;;;;;;;;;;;;;;;;;5070796;28;19920;-59
2022/06/02 15:25:41;;;;;;;;;;;;;;;;;;5070909;28;19909;-59
2022/06/02 15:28:07;;;;;;;;;;;;;;;;;;5070773;28;19998;-60
2022/06/02 15:30:33;;;;;;;;;;;;;;;;;;5071119;28;20334;-59
2022/06/02 15:32:59;;;;;;;;;;;;;;;;;;5070775;28;19950;-59
2022/06/02 15:35:25;;;;;;;;;;;;;;;;;;5071110;28;20356;-59
2022/06/02 15:37:51;;;;;;;;;;;;;;;;;;5070550;28;19908;-59
2022/06/02 15:40:17;;;;;;;;;;;;;;;;;;5068807;28;19909;-60
2022/06/02 15:42:43;;;;;;;;;;;;;;;;;;5069389;28;20437;-60
2022/06/02 15:45:10;;;;;;;;;;;;;;;;;;5075266;28;20347;-60
2022/06/02 15:47:37;;;;;;;;;;;;;;;;;;5071100;28;19948;-60
2022/06/02 15:50:04;;;;;;;;;;;;;;;;;;5066104;28;21775;-60
2022/06/02 15:52:30;;;;;;;;;;;;;;;;;;5070612;28;19983;-60
2022/06/02 15:54:56;;;;;;;;;;;;;;;;;;5069417;28;19955;-59
2022/06/02 15:57:22;;;;;;;;;;;;;;;;;;5070679;28;19911;-60
2022/06/02 15:59:48;;;;;;;;;;;;;;;;;;5070464;28;19904;-60
2022/06/02 16:02:14;;;;;;;;;;;;;;;;;;5071315;28;19908;-60
2022/06/02 16:04:40;;;;;;;;;;;;;;;;;;5073578;28;20482;-61
2022/06/02 16:07:06;;;;;;;;;;;;;;;;;;5071954;28;19948;-63
2022/06/02 16:12:16;;;;;;;;;;;;;;;;;;5066033;28;20023;-61
2022/06/02 16:14:43;;;;;;;;;;;;;;;;;;5070488;28;20411;-61
2022/06/02 16:17:10;;;;;;;;;;;;;;;;;;5065475;28;19916;-61
2022/06/02 16:19:36;;;;;;;;;;;;;;;;;;5069016;28;19962;-61
2022/06/02 16:22:02;;;;;;;;;;;;;;;;;;5069522;28;19953;-61
2022/06/02 16:24:28;;;;;;;;;;;;;;;;;;5071399;28;19904;-61
2022/06/02 16:26:54;;;;;;;;;;;;;;;;;;5069404;28;19904;-61
2022/06/02 16:29:20;;;;;;;;;;;;;;;;;;5067729;28;20439;-61
2022/06/02 16:31:46;;;;;;;;;;;;;;;;;;5080672;28;19912;-61
2022/06/02 16:34:12;;;;;;;;;;;;;;;;;;5069257;28;19904;-60
2022/06/02 16:36:38;;;;;;;;;;;;;;;;;;5063112;28;20387;-60
2022/06/02 16:39:04;;;;;;;;;;;;;;;;;;5055593;28;19919;-60
2022/06/02 16:41:30;;;;;;;;;;;;;;;;;;5073953;28;20364;-61
2022/06/02 16:43:56;;;;;;;;;;;;;;;;;;5072327;28;19913;-61
2022/06/02 16:46:22;;;;;;;;;;;;;;;;;;5071356;28;19908;-61
2022/06/02 16:48:48;;;;;;;;;;;;;;;;;;5071495;28;19961;-61
2022/06/02 16:51:13;;;;;;;;;;;;;;;;;;5068669;28;19912;-61